Time;durP1;ratioP1;P1;durP2;ratioP2;P2;SDS_P1;SDS_P2;PMS_P1;PMS_P2;Temp;Humidity;BMP_temperature;BMP_pressure;BME280_temperature;BME280_humidity;BME280_pressure;Samples;Min_cycle;Max_cycle;Signal;HPM_P1;HPM_P2
2023/05/30 00:00:43;;;;;;;7.78;3.85;;;15.40;97.20;;;;;;2131036;27;20030;-83
2023/05/30 00:01:44;;;;;;;6.47;3.83;;;15.40;97.30;;;;;;2111219;27;20544;-82
2023/05/30 00:02:44;;;;;;;7.20;3.92;;;15.40;97.40;;;;;;2121181;27;20031;-81
2023/05/30 00:03:46;;;;;;;8.48;4.00;;;15.40;97.80;;;;;;2122843;27;20061;-81
2023/05/30 00:04:46;;;;;;;6.85;4.03;;;15.40;98.00;;;;;;2122441;27;20043;-82
2023/05/30 00:05:47;;;;;;;7.07;3.80;;;15.30;97.60;;;;;;2126961;27;20070;-83
2023/05/30 00:06:48;;;;;;;6.25;3.65;;;15.30;97.40;;;;;;2120557;27;20035;-83
2023/05/30 00:07:49;;;;;;;5.32;3.80;;;15.30;97.30;;;;;;2118873;27;20038;-83
2023/05/30 00:08:50;;;;;;;5.15;3.60;;;15.30;97.40;;;;;;2119663;27;20504;-83
2023/05/30 00:09:50;;;;;;;6.85;3.83;;;15.20;97.40;;;;;;2120859;27;20078;-83
2023/05/30 00:10:51;;;;;;;5.97;3.70;;;15.20;97.50;;;;;;2105535;28;20515;-83
2023/05/30 00:11:54;;;;;;;6.28;3.85;;;15.20;97.70;;;;;;2115896;27;20046;-84
2023/05/30 00:12:55;;;;;;;7.90;3.80;;;15.20;98.00;;;;;;2121848;27;20528;-83
2023/05/30 00:13:56;;;;;;;8.40;3.97;;;15.20;98.10;;;;;;2105141;28;20024;-84
2023/05/30 00:14:59;;;;;;;7.53;4.00;;;15.10;98.40;;;;;;2121061;27;20105;-82
2023/05/30 00:16:03;;;;;;;5.97;3.75;;;15.10;98.60;;;;;;2113859;27;20026;-83
2023/05/30 00:17:05;;;;;;;9.02;4.15;;;15.10;98.80;;;;;;2122253;27;20027;-82
2023/05/30 00:18:05;;;;;;;9.63;4.22;;;15.20;99.30;;;;;;2124520;27;20035;-83
2023/05/30 00:19:07;;;;;;;7.57;4.13;;;15.10;99.30;;;;;;2125661;27;20130;-83
2023/05/30 00:20:08;;;;;;;7.20;3.90;;;15.10;99.10;;;;;;2113270;28;20035;-83
2023/05/30 00:21:12;;;;;;;7.45;4.30;;;15.10;99.00;;;;;;2114875;27;20031;-83
2023/05/30 00:22:12;;;;;;;8.68;4.18;;;15.10;99.30;;;;;;2111314;27;20525;-82
2023/05/30 00:23:13;;;;;;;8.10;3.90;;;15.10;99.60;;;;;;2121199;27;20045;-82
2023/05/30 00:24:13;;;;;;;11.00;4.63;;;15.10;99.20;;;;;;2117378;27;20551;-81
2023/05/30 00:25:14;;;;;;;7.70;4.00;;;15.10;99.90;;;;;;2121087;27;20062;-82
2023/05/30 00:26:15;;;;;;;8.35;4.20;;;15.00;99.90;;;;;;2121716;27;20402;-82
2023/05/30 00:27:22;;;;;;;9.05;4.20;;;15.00;99.70;;;;;;2106172;28;20040;-85
2023/05/30 00:28:23;;;;;;;6.78;3.85;;;15.10;99.90;;;;;;2129360;27;20047;-79
2023/05/30 00:29:24;;;;;;;6.50;4.05;;;15.00;99.90;;;;;;2124585;27;20147;-83
2023/05/30 00:30:25;;;;;;;6.45;3.80;;;15.00;99.90;;;;;;2120596;27;20028;-82
2023/05/30 00:31:26;;;;;;;7.85;4.15;;;15.00;99.90;;;;;;2119787;27;20027;-83
2023/05/30 00:32:27;;;;;;;8.38;4.25;;;15.00;99.90;;;;;;2130463;27;20054;-80
2023/05/30 00:33:27;;;;;;;7.35;3.85;;;15.00;99.90;;;;;;2129760;27;20483;-82
2023/05/30 00:34:28;;;;;;;8.23;4.07;;;15.00;99.90;;;;;;2113172;27;20026;-83
2023/05/30 00:35:28;;;;;;;8.98;4.30;;;14.90;99.90;;;;;;2104977;28;20024;-81
2023/05/30 00:36:29;;;;;;;8.45;3.80;;;14.90;99.90;;;;;;2119046;27;20030;-81
2023/05/30 00:37:32;;;;;;;10.23;4.45;;;14.90;99.90;;;;;;2121592;27;20489;-82
2023/05/30 00:38:32;;;;;;;8.02;4.10;;;14.90;99.90;;;;;;2121879;27;20118;-83
2023/05/30 00:39:33;;;;;;;6.65;3.72;;;14.90;99.90;;;;;;2114501;27;20020;-83
2023/05/30 00:40:33;;;;;;;9.23;3.95;;;14.90;99.90;;;;;;2113606;28;20035;-81
2023/05/30 00:41:34;;;;;;;7.55;4.57;;;14.90;99.90;;;;;;2117158;27;20517;-82
2023/05/30 00:42:35;;;;;;;6.57;4.10;;;14.90;99.90;;;;;;2123130;27;20030;-84
2023/05/30 00:43:37;;;;;;;9.00;3.97;;;14.90;99.90;;;;;;2121834;27;20031;-83
2023/05/30 00:44:37;;;;;;;6.15;3.70;;;14.90;99.90;;;;;;2107220;28;20032;-83
2023/05/30 00:45:39;;;;;;;7.50;4.10;;;14.90;99.90;;;;;;2127800;27;20031;-81
2023/05/30 00:46:39;;;;;;;10.00;4.20;;;14.90;99.90;;;;;;2119842;27;20234;-83
2023/05/30 00:47:40;;;;;;;8.57;4.00;;;14.90;99.90;;;;;;2121120;27;20035;-82
2023/05/30 00:48:42;;;;;;;7.47;4.20;;;14.90;99.90;;;;;;2126164;27;20035;-82
2023/05/30 00:49:44;;;;;;;6.40;3.90;;;14.90;99.90;;;;;;2125871;27;20031;-81
2023/05/30 00:50:45;;;;;;;6.75;4.00;;;14.80;99.90;;;;;;2107040;28;20040;-82
2023/05/30 00:51:46;;;;;;;6.43;3.60;;;14.90;99.90;;;;;;2102218;28;20129;-82
2023/05/30 00:52:48;;;;;;;10.00;4.03;;;14.80;99.90;;;;;;2112814;27;20078;-79
2023/05/30 00:53:49;;;;;;;7.15;3.75;;;14.80;99.90;;;;;;2122221;27;20035;-81
2023/05/30 00:54:51;;;;;;;7.35;3.70;;;14.80;99.90;;;;;;2120361;27;20031;-82
2023/05/30 00:55:52;;;;;;;7.47;4.20;;;14.70;99.90;;;;;;2113138;27;20127;-85
2023/05/30 00:56:53;;;;;;;8.20;3.90;;;14.70;99.90;;;;;;2105404;28;20036;-82
2023/05/30 00:57:55;;;;;;;6.22;3.53;;;14.70;99.90;;;;;;2121354;27;20187;-80
2023/05/30 00:58:58;;;;;;;8.10;4.07;;;14.70;99.90;;;;;;2121904;27;20038;-82
2023/05/30 01:00:02;;;;;;;7.10;3.95;;;14.70;99.90;;;;;;2120478;27;20055;-81
2023/05/30 01:01:06;;;;;;;7.75;4.03;;;14.70;99.90;;;;;;2096731;28;20037;-81
2023/05/30 01:02:06;;;;;;;7.57;3.90;;;14.70;99.90;;;;;;2110691;27;20036;-80
2023/05/30 01:03:08;;;;;;;8.27;4.00;;;14.70;99.90;;;;;;2123622;27;20035;-82
2023/05/30 01:04:10;;;;;;;9.98;4.25;;;14.70;99.90;;;;;;2112775;28;20039;-82
2023/05/30 01:05:14;;;;;;;7.85;4.00;;;14.70;99.90;;;;;;2120678;27;20035;-82
2023/05/30 01:06:15;;;;;;;7.90;3.95;;;14.70;99.90;;;;;;2121784;27;20019;-81
2023/05/30 01:07:15;;;;;;;6.80;3.83;;;14.70;99.90;;;;;;2110401;28;20027;-81
2023/05/30 01:08:16;;;;;;;10.20;4.20;;;14.70;99.90;;;;;;2108106;28;20019;-80
2023/05/30 01:09:18;;;;;;;6.90;3.80;;;14.60;99.90;;;;;;2113803;27;20057;-82
2023/05/30 01:10:18;;;;;;;6.50;3.75;;;14.60;99.90;;;;;;2111904;28;20023;-83
2023/05/30 01:11:53;;;;;;;7.07;3.90;;;14.60;99.90;;;;;;2097947;28;20455;-83
2023/05/30 01:13:06;;;;;;;6.60;3.75;;;14.60;99.90;;;;;;2096634;28;20149;-84
2023/05/30 01:14:34;;;;;;;5.75;3.72;;;14.50;99.90;;;;;;2091044;28;20702;-83
2023/05/30 01:15:56;;;;;;;6.05;3.90;;;14.50;99.90;;;;;;2100384;28;20120;-83
2023/05/30 01:17:06;;;;;;;8.15;4.15;;;14.50;99.90;;;;;;2110936;28;20114;-83
2023/05/30 01:18:24;;;;;;;7.85;4.05;;;14.50;99.90;;;;;;2113956;27;20062;-83
2023/05/30 01:19:45;;;;;;;7.32;4.03;;;14.50;99.90;;;;;;2118964;27;20026;-82
2023/05/30 01:20:50;;;;;;;12.15;4.65;;;14.50;99.90;;;;;;2113656;28;20339;-82
2023/05/30 01:21:59;;;;;;;9.18;4.32;;;14.50;99.90;;;;;;2116653;27;20050;-82
2023/05/30 01:23:38;;;;;;;8.15;4.57;;;14.50;99.90;;;;;;2108551;28;20057;-84
2023/05/30 01:24:50;;;;;;;8.20;3.95;;;14.40;99.90;;;;;;2116765;27;20019;-82
2023/05/30 01:26:16;;;;;;;7.95;4.07;;;14.40;99.90;;;;;;2097811;28;20206;-83
2023/05/30 01:27:29;;;;;;;7.68;4.10;;;14.40;99.90;;;;;;2099543;28;20097;-83
2023/05/30 01:28:33;;;;;;;8.73;4.20;;;14.30;99.90;;;;;;2105076;28;20040;-86
2023/05/30 01:29:35;;;;;;;8.32;4.25;;;14.30;99.90;;;;;;2111600;28;20073;-82
2023/05/30 01:30:38;;;;;;;7.82;4.13;;;14.30;99.90;;;;;;2120676;27;20535;-83
2023/05/30 01:31:39;;;;;;;11.60;4.55;;;14.30;99.90;;;;;;2120007;27;20113;-83
2023/05/30 01:32:40;;;;;;;9.40;4.38;;;14.30;99.90;;;;;;2127184;27;20030;-84
2023/05/30 01:33:43;;;;;;;8.15;4.20;;;14.20;99.90;;;;;;2111694;28;20510;-83
2023/05/30 01:34:44;;;;;;;7.35;4.20;;;14.20;99.90;;;;;;2095813;28;20037;-83
2023/05/30 01:35:45;;;;;;;8.07;4.00;;;14.20;99.90;;;;;;2119728;27;20111;-83
2023/05/30 01:36:46;;;;;;;8.35;4.00;;;14.20;99.90;;;;;;2098289;28;20103;-82
2023/05/30 01:37:46;;;;;;;9.13;4.47;;;14.20;99.90;;;;;;2111182;28;20039;-82
2023/05/30 01:38:47;;;;;;;10.32;4.38;;;14.20;99.90;;;;;;2122192;27;20648;-83
2023/05/30 01:39:47;;;;;;;7.60;4.00;;;14.20;99.90;;;;;;2103841;28;20036;-84
2023/05/30 01:40:59;;;;;;;7.93;4.25;;;14.20;99.90;;;;;;2103037;28;20020;-81
2023/05/30 01:42:21;;;;;;;10.05;4.20;;;14.10;99.90;;;;;;2097519;28;20035;-83
2023/05/30 01:43:54;;;;;;;10.80;4.40;;;14.10;99.90;;;;;;2090290;28;20109;-83
2023/05/30 01:45:13;;;;;;;8.23;4.30;;;14.10;99.90;;;;;;2096369;28;20032;-82
2023/05/30 01:46:31;;;;;;;8.07;3.97;;;14.10;99.90;;;;;;2092894;28;20032;-82
2023/05/30 01:47:41;;;;;;;8.45;4.28;;;14.10;99.90;;;;;;2093148;28;20036;-82
2023/05/30 01:49:11;;;;;;;6.63;4.07;;;14.10;99.90;;;;;;2096549;28;20150;-82
2023/05/30 01:50:19;;;;;;;8.07;4.50;;;14.00;99.90;;;;;;2099640;28;20032;-80
2023/05/30 01:51:37;;;;;;;9.70;4.50;;;14.00;99.90;;;;;;2098075;28;20040;-81
2023/05/30 01:52:43;;;;;;;8.63;4.20;;;14.00;99.90;;;;;;2105966;28;20099;-80
2023/05/30 01:53:50;;;;;;;9.00;4.40;;;14.00;99.90;;;;;;2096104;28;20182;-82
2023/05/30 01:54:56;;;;;;;10.88;4.55;;;13.90;99.90;;;;;;2096128;28;20029;-82
2023/05/30 01:55:59;;;;;;;10.20;4.25;;;13.90;99.90;;;;;;2096269;28;20028;-83
2023/05/30 01:57:12;;;;;;;9.50;3.92;;;13.90;99.90;;;;;;2112473;27;20016;-83
2023/05/30 01:58:18;;;;;;;10.57;4.47;;;13.90;99.90;;;;;;2095456;28;20302;-83
2023/05/30 01:59:20;;;;;;;9.85;4.45;;;13.90;99.90;;;;;;2100025;28;20031;-83
2023/05/30 02:00:21;;;;;;;6.93;4.07;;;13.90;99.90;;;;;;2103558;28;20031;-83
2023/05/30 02:01:28;;;;;;;7.60;4.30;;;13.90;99.90;;;;;;2093772;28;20051;-80
2023/05/30 02:02:29;;;;;;;9.20;4.13;;;13.80;99.90;;;;;;2113132;27;20046;-80
2023/05/30 02:03:30;;;;;;;6.78;4.18;;;13.80;99.90;;;;;;2119579;27;20023;-84
2023/05/30 02:04:31;;;;;;;8.40;4.05;;;13.70;99.90;;;;;;2112287;27;20027;-82
2023/05/30 02:05:32;;;;;;;10.82;4.60;;;13.80;99.90;;;;;;2111287;28;20510;-82
2023/05/30 02:06:32;;;;;;;6.90;4.10;;;13.80;99.90;;;;;;2099398;28;20031;-82
2023/05/30 02:07:33;;;;;;;8.32;4.30;;;13.70;99.90;;;;;;2116931;27;20038;-83
2023/05/30 02:08:33;;;;;;;8.40;4.70;;;13.80;99.90;;;;;;2126900;27;20030;-82
2023/05/30 02:09:34;;;;;;;8.23;4.68;;;13.70;99.90;;;;;;2112627;27;20114;-83
2023/05/30 02:10:35;;;;;;;9.00;4.50;;;13.70;99.90;;;;;;2103928;28;20046;-81
2023/05/30 02:11:35;;;;;;;8.98;4.30;;;13.70;99.90;;;;;;2106882;28;20032;-83
2023/05/30 02:12:36;;;;;;;9.05;4.40;;;13.70;99.90;;;;;;2111316;28;20082;-81
2023/05/30 02:13:36;;;;;;;10.38;4.18;;;13.70;99.90;;;;;;2111573;28;20032;-82
2023/05/30 02:14:37;;;;;;;8.73;4.20;;;13.70;99.90;;;;;;2104205;28;20047;-82
2023/05/30 02:15:38;;;;;;;8.18;3.97;;;13.60;99.90;;;;;;2112280;28;20035;-80
2023/05/30 02:16:39;;;;;;;7.68;4.30;;;13.60;99.90;;;;;;2118093;27;20508;-81
2023/05/30 02:17:40;;;;;;;7.82;4.18;;;13.60;99.90;;;;;;2108965;28;20039;-81
2023/05/30 02:18:41;;;;;;;8.93;3.90;;;13.60;99.90;;;;;;2102619;28;20036;-82
2023/05/30 02:19:41;;;;;;;9.82;4.05;;;13.60;99.90;;;;;;2104260;28;20074;-82
2023/05/30 02:20:42;;;;;;;8.00;4.20;;;13.60;99.90;;;;;;2108672;28;20038;-84
2023/05/30 02:21:42;;;;;;;7.63;4.03;;;13.60;99.90;;;;;;2105444;28;20043;-83
2023/05/30 02:22:43;;;;;;;10.75;4.32;;;13.50;99.90;;;;;;2120446;27;20121;-82
2023/05/30 02:23:44;;;;;;;7.13;4.00;;;13.50;99.90;;;;;;2104045;28;20085;-82
2023/05/30 02:24:45;;;;;;;8.88;4.15;;;13.50;99.90;;;;;;2112093;28;20028;-82
2023/05/30 02:25:45;;;;;;;8.43;4.60;;;13.50;99.90;;;;;;2111226;28;20019;-82
2023/05/30 02:26:47;;;;;;;8.05;4.20;;;13.50;99.90;;;;;;2097889;28;20832;-83
2023/05/30 02:27:50;;;;;;;9.20;4.07;;;13.40;99.90;;;;;;2103001;28;20114;-82
2023/05/30 02:28:51;;;;;;;9.80;4.07;;;13.40;99.90;;;;;;2103523;28;20735;-82
2023/05/30 02:29:52;;;;;;;6.65;4.18;;;13.40;99.90;;;;;;2119852;27;20041;-83
2023/05/30 02:30:53;;;;;;;6.68;4.30;;;13.40;99.90;;;;;;2111849;28;20072;-82
2023/05/30 02:31:53;;;;;;;8.55;4.10;;;13.40;99.90;;;;;;2096870;28;20384;-82
2023/05/30 02:32:55;;;;;;;7.18;3.95;;;13.40;99.90;;;;;;2107345;28;20032;-84
2023/05/30 02:33:56;;;;;;;7.82;4.07;;;13.40;99.90;;;;;;2111045;28;20138;-82
2023/05/30 02:34:57;;;;;;;7.30;4.20;;;13.30;99.90;;;;;;2120546;27;20501;-82
2023/05/30 02:35:58;;;;;;;7.97;4.20;;;13.30;99.90;;;;;;2112492;28;20070;-82
2023/05/30 02:36:59;;;;;;;8.00;4.22;;;13.30;99.90;;;;;;2107367;28;20024;-83
2023/05/30 02:37:59;;;;;;;9.77;4.30;;;13.30;99.90;;;;;;2103592;28;20102;-83
2023/05/30 02:39:06;;;;;;;7.35;3.83;;;13.30;99.90;;;;;;2095611;28;20411;-82
2023/05/30 02:40:11;;;;;;;6.72;3.85;;;13.30;99.90;;;;;;2095771;28;20028;-83
2023/05/30 02:41:11;;;;;;;9.18;4.30;;;13.30;99.90;;;;;;2103615;28;20036;-82
2023/05/30 02:42:12;;;;;;;9.68;4.22;;;13.30;99.90;;;;;;2093327;28;20459;-83
2023/05/30 02:43:13;;;;;;;7.13;4.18;;;13.30;99.90;;;;;;2094495;28;20762;-83
2023/05/30 02:44:14;;;;;;;9.55;4.03;;;13.30;99.90;;;;;;2092223;28;20025;-83
2023/05/30 02:45:15;;;;;;;7.47;3.92;;;13.20;99.90;;;;;;2094570;28;20783;-83
2023/05/30 02:46:18;;;;;;;9.38;4.25;;;13.30;99.90;;;;;;2102003;28;20024;-83
2023/05/30 02:47:19;;;;;;;7.60;4.25;;;13.20;99.90;;;;;;2103498;28;20122;-83
2023/05/30 02:48:21;;;;;;;7.22;4.07;;;13.20;99.90;;;;;;2095190;28;20124;-83
2023/05/30 02:49:22;;;;;;;9.38;4.43;;;13.20;99.90;;;;;;2107177;28;20035;-83
2023/05/30 02:50:23;;;;;;;7.55;4.13;;;13.20;99.90;;;;;;2119598;27;20035;-82
2023/05/30 02:51:24;;;;;;;8.23;4.53;;;13.20;99.90;;;;;;2101813;28;20344;-82
2023/05/30 02:52:25;;;;;;;9.43;4.43;;;13.20;99.90;;;;;;2103321;28;20024;-81
2023/05/30 02:53:31;;;;;;;10.38;4.20;;;13.20;99.90;;;;;;2108996;28;20062;-81
2023/05/30 02:54:32;;;;;;;8.18;4.30;;;13.10;99.90;;;;;;2105873;28;20028;-81
2023/05/30 02:55:51;;;;;;;8.75;4.40;;;13.10;99.90;;;;;;2103223;28;20110;-81
2023/05/30 02:57:11;;;;;;;8.60;4.38;;;13.10;99.90;;;;;;2096665;28;20040;-82
2023/05/30 02:58:27;;;;;;;9.52;4.22;;;13.10;99.90;;;;;;2099734;28;20438;-83
2023/05/30 02:59:35;;;;;;;9.40;4.45;;;13.10;99.90;;;;;;2099009;28;20119;-83
2023/05/30 03:00:42;;;;;;;9.27;4.35;;;13.00;99.90;;;;;;2096058;28;20058;-82
2023/05/30 03:01:52;;;;;;;9.00;4.50;;;13.00;99.90;;;;;;2094358;28;20483;-81
2023/05/30 03:02:54;;;;;;;7.97;4.28;;;13.00;99.90;;;;;;2094763;28;20116;-81
2023/05/30 03:03:54;;;;;;;11.90;4.68;;;13.00;99.90;;;;;;2094747;28;20097;-82
2023/05/30 03:05:03;;;;;;;9.20;4.75;;;13.00;99.90;;;;;;2086614;28;20124;-81
2023/05/30 03:06:04;;;;;;;8.90;4.55;;;13.00;99.90;;;;;;2087162;28;20033;-82
2023/05/30 03:07:17;;;;;;;8.77;4.65;;;12.90;99.90;;;;;;2087925;28;20119;-85
2023/05/30 03:08:18;;;;;;;8.65;4.10;;;13.00;99.90;;;;;;2090147;28;20032;-76
2023/05/30 03:09:19;;;;;;;9.63;4.45;;;13.00;99.90;;;;;;2095176;28;20423;-83
2023/05/30 03:10:20;;;;;;;10.48;4.72;;;13.00;99.90;;;;;;2103293;28;20027;-76
2023/05/30 03:11:23;;;;;;;8.88;4.30;;;13.00;99.90;;;;;;2100926;28;20398;-76
2023/05/30 03:12:24;;;;;;;11.65;4.35;;;13.00;99.90;;;;;;2094939;28;20039;-76
2023/05/30 03:13:25;;;;;;;8.77;4.90;;;13.00;99.90;;;;;;2094678;28;20020;-76
2023/05/30 03:14:27;;;;;;;11.30;4.75;;;12.90;99.90;;;;;;2094703;28;20017;-77
2023/05/30 03:15:30;;;;;;;8.07;4.38;;;13.00;99.90;;;;;;2102413;28;20028;-77
2023/05/30 03:16:32;;;;;;;8.55;4.65;;;13.00;99.90;;;;;;2093406;28;20094;-75
2023/05/30 03:17:35;;;;;;;11.25;4.97;;;13.00;99.90;;;;;;2102127;28;20561;-76
2023/05/30 03:18:37;;;;;;;11.18;4.82;;;13.00;99.90;;;;;;2095063;28;20582;-77
2023/05/30 03:19:37;;;;;;;9.57;4.38;;;13.00;99.90;;;;;;2094658;28;20017;-76
2023/05/30 03:20:42;;;;;;;9.13;4.60;;;13.00;99.90;;;;;;2095337;28;20048;-75
2023/05/30 03:21:43;;;;;;;12.73;4.70;;;13.00;99.90;;;;;;2093112;28;19917;-75
2023/05/30 03:22:46;;;;;;;9.38;4.90;;;13.00;99.90;;;;;;2095395;28;20029;-75
2023/05/30 03:23:49;;;;;;;10.55;4.63;;;13.00;99.90;;;;;;2103246;28;20032;-76
2023/05/30 03:24:50;;;;;;;12.23;4.80;;;13.00;99.90;;;;;;2094758;28;20044;-76
2023/05/30 03:25:50;;;;;;;11.00;4.75;;;13.00;99.90;;;;;;2095739;28;20111;-76
2023/05/30 03:26:51;;;;;;;11.15;4.88;;;13.00;99.90;;;;;;2089631;28;20624;-76
2023/05/30 03:27:52;;;;;;;10.23;4.75;;;13.00;99.90;;;;;;2104019;28;20498;-75
2023/05/30 03:28:55;;;;;;;11.43;4.70;;;13.00;99.90;;;;;;2104798;28;20545;-75
2023/05/30 03:29:59;;;;;;;10.93;4.78;;;13.00;99.90;;;;;;2096228;28;20028;-75
2023/05/30 03:31:00;;;;;;;10.90;4.72;;;13.00;99.90;;;;;;2096208;28;20029;-75
2023/05/30 03:32:01;;;;;;;9.45;4.28;;;12.90;99.90;;;;;;2094426;28;20113;-75
2023/05/30 03:33:02;;;;;;;10.98;4.60;;;13.00;99.90;;;;;;2104640;28;20024;-75
2023/05/30 03:34:02;;;;;;;8.35;4.38;;;12.90;99.90;;;;;;2104366;28;20491;-75
2023/05/30 03:35:05;;;;;;;10.23;4.30;;;12.90;99.90;;;;;;2095730;28;20151;-74
2023/05/30 03:36:10;;;;;;;9.35;4.47;;;12.90;99.90;;;;;;2095807;28;20060;-75
2023/05/30 03:37:11;;;;;;;9.50;4.13;;;12.90;99.90;;;;;;2086334;28;20492;-75
2023/05/30 03:38:11;;;;;;;8.30;4.50;;;12.90;99.90;;;;;;2087741;28;20037;-76
2023/05/30 03:39:12;;;;;;;11.70;5.00;;;12.90;99.90;;;;;;2095701;28;20091;-75
2023/05/30 03:40:13;;;;;;;9.15;4.43;;;12.90;99.90;;;;;;2088084;28;20029;-76
2023/05/30 03:41:14;;;;;;;10.13;4.65;;;12.90;99.90;;;;;;2087797;28;20047;-76
2023/05/30 03:42:14;;;;;;;11.48;4.85;;;12.90;99.90;;;;;;2086064;28;20168;-75
2023/05/30 03:43:15;;;;;;;8.25;4.40;;;12.90;99.90;;;;;;2079562;28;20457;-75
2023/05/30 03:44:16;;;;;;;10.80;4.80;;;12.90;99.90;;;;;;2079424;28;20554;-75
2023/05/30 03:45:16;;;;;;;8.38;4.60;;;13.00;99.90;;;;;;2080935;28;20049;-74
2023/05/30 03:46:19;;;;;;;8.27;4.32;;;12.90;99.90;;;;;;2085805;28;20530;-74
2023/05/30 03:47:20;;;;;;;9.18;4.55;;;13.00;99.90;;;;;;2096424;28;20032;-75
2023/05/30 03:48:20;;;;;;;8.13;4.00;;;12.90;99.90;;;;;;2088391;28;20525;-75
2023/05/30 03:49:21;;;;;;;9.35;4.60;;;12.90;99.90;;;;;;2079472;28;20147;-75
2023/05/30 03:50:21;;;;;;;10.93;4.60;;;12.90;99.90;;;;;;2088126;28;20057;-75
2023/05/30 03:51:22;;;;;;;9.98;4.70;;;12.90;99.90;;;;;;2093338;28;20470;-75
2023/05/30 03:52:23;;;;;;;10.73;4.90;;;12.90;99.90;;;;;;2079697;28;20575;-74
2023/05/30 03:53:23;;;;;;;9.48;4.45;;;12.80;99.90;;;;;;2095421;28;20063;-74
2023/05/30 03:54:24;;;;;;;11.40;5.00;;;12.90;99.90;;;;;;2096059;28;20051;-75
2023/05/30 03:55:25;;;;;;;10.25;4.93;;;12.80;99.90;;;;;;2095960;28;20028;-75
2023/05/30 03:56:25;;;;;;;10.85;4.85;;;12.80;99.90;;;;;;2094184;28;20558;-75
2023/05/30 03:57:26;;;;;;;8.85;4.80;;;12.80;99.90;;;;;;2096279;28;20107;-74
2023/05/30 03:58:26;;;;;;;11.75;4.82;;;12.80;99.90;;;;;;2087834;28;20033;-75
2023/05/30 03:59:28;;;;;;;10.90;4.97;;;12.80;99.90;;;;;;2097271;28;20066;-75
2023/05/30 04:00:28;;;;;;;9.27;4.50;;;12.80;99.90;;;;;;2096254;28;20055;-75
2023/05/30 04:01:33;;;;;;;10.43;4.80;;;12.70;99.90;;;;;;2092240;28;20045;-74
2023/05/30 04:02:33;;;;;;;9.13;4.57;;;12.80;99.90;;;;;;2096276;28;20368;-75
2023/05/30 04:03:37;;;;;;;9.30;5.07;;;12.80;99.90;;;;;;2104356;28;20034;-74
2023/05/30 04:04:37;;;;;;;8.98;4.50;;;12.70;99.90;;;;;;2104166;28;20119;-75
2023/05/30 04:05:39;;;;;;;10.15;4.70;;;12.80;99.90;;;;;;2095919;28;20120;-75
2023/05/30 04:06:40;;;;;;;9.57;5.03;;;12.80;99.90;;;;;;2085904;28;20037;-75
2023/05/30 04:07:41;;;;;;;10.18;4.82;;;12.80;99.90;;;;;;2095616;28;20024;-74
2023/05/30 04:08:42;;;;;;;8.73;4.43;;;12.90;99.90;;;;;;2094217;28;20545;-75
2023/05/30 04:09:42;;;;;;;10.07;4.60;;;12.90;99.90;;;;;;2095824;28;20095;-76
2023/05/30 04:10:44;;;;;;;9.10;5.05;;;12.90;99.90;;;;;;2103917;28;20101;-76
2023/05/30 04:11:45;;;;;;;10.15;4.80;;;13.00;99.90;;;;;;2095666;28;20025;-75
2023/05/30 04:12:45;;;;;;;8.18;4.65;;;13.00;99.90;;;;;;2096179;28;20017;-75
2023/05/30 04:13:46;;;;;;;9.10;4.85;;;13.10;99.90;;;;;;2095857;28;20033;-75
2023/05/30 04:14:47;;;;;;;10.40;4.70;;;13.10;99.90;;;;;;2095415;28;20042;-76
2023/05/30 04:15:48;;;;;;;10.85;4.65;;;13.20;99.90;;;;;;2096148;28;20056;-75
2023/05/30 04:16:49;;;;;;;10.32;5.10;;;13.20;99.90;;;;;;2093711;28;20039;-75
2023/05/30 04:17:49;;;;;;;9.18;4.60;;;13.20;99.90;;;;;;2087411;28;20071;-75
2023/05/30 04:18:50;;;;;;;8.48;4.75;;;13.30;99.90;;;;;;2079540;28;20029;-75
2023/05/30 04:19:52;;;;;;;7.43;4.70;;;13.40;99.90;;;;;;2087708;28;20029;-75
2023/05/30 04:20:53;;;;;;;10.75;4.95;;;13.40;99.90;;;;;;2096348;28;20059;-75
2023/05/30 04:21:53;;;;;;;10.40;4.90;;;13.50;99.90;;;;;;2107865;28;20032;-76
2023/05/30 04:22:54;;;;;;;11.23;4.43;;;13.50;99.90;;;;;;2096774;28;20533;-76
2023/05/30 04:23:55;;;;;;;9.48;5.15;;;13.60;99.90;;;;;;2096110;28;20407;-74
2023/05/30 04:24:56;;;;;;;10.13;4.88;;;13.70;99.90;;;;;;2095897;28;20107;-75
2023/05/30 04:25:57;;;;;;;11.35;4.82;;;13.70;99.90;;;;;;2096349;28;20028;-75
2023/05/30 04:27:00;;;;;;;10.10;5.15;;;13.80;99.90;;;;;;2083367;28;20523;-75
2023/05/30 04:28:01;;;;;;;9.23;4.95;;;13.80;99.90;;;;;;2094529;28;20443;-76
2023/05/30 04:29:02;;;;;;;11.45;4.90;;;13.90;99.90;;;;;;2088518;28;20033;-76
2023/05/30 04:30:04;;;;;;;8.63;4.65;;;14.00;99.90;;;;;;2094950;28;20028;-75
2023/05/30 04:31:05;;;;;;;9.65;4.32;;;14.20;99.90;;;;;;2096453;28;20040;-77
2023/05/30 04:32:07;;;;;;;14.18;5.00;;;14.50;99.90;;;;;;2102807;28;20027;-76
2023/05/30 04:33:07;;;;;;;12.32;4.88;;;14.70;99.90;;;;;;2104986;28;20125;-75
2023/05/30 04:34:08;;;;;;;11.77;5.15;;;14.90;99.90;;;;;;2106312;28;20115;-76
2023/05/30 04:35:09;;;;;;;9.50;5.10;;;14.90;99.90;;;;;;2108637;28;20050;-75
2023/05/30 04:36:16;;;;;;;8.95;4.38;;;15.00;99.90;;;;;;2098710;28;20024;-76
2023/05/30 04:37:18;;;;;;;8.55;4.70;;;15.10;99.90;;;;;;2094736;28;20087;-75
2023/05/30 04:38:20;;;;;;;10.32;4.57;;;15.20;99.90;;;;;;2108551;28;20035;-77
2023/05/30 04:39:22;;;;;;;11.95;4.90;;;15.20;99.90;;;;;;2098809;28;20024;-76
2023/05/30 04:40:25;;;;;;;11.63;4.90;;;15.30;99.90;;;;;;2104455;28;20119;-75
2023/05/30 04:41:26;;;;;;;11.32;4.80;;;15.30;99.90;;;;;;2102721;28;20047;-76
2023/05/30 04:42:27;;;;;;;11.45;4.57;;;15.30;99.90;;;;;;2104588;28;20093;-76
2023/05/30 04:43:31;;;;;;;8.90;4.45;;;15.30;99.90;;;;;;2107438;28;20020;-76
2023/05/30 04:44:38;;;;;;;7.80;4.22;;;15.40;99.90;;;;;;2104126;28;20028;-76
2023/05/30 04:45:38;;;;;;;9.45;4.65;;;15.70;99.90;;;;;;2097160;28;20024;-76
2023/05/30 04:46:40;;;;;;;11.25;4.55;;;15.90;99.90;;;;;;2099361;28;20023;-75
2023/05/30 04:47:44;;;;;;;12.38;4.60;;;16.00;99.90;;;;;;2096297;28;20031;-75
2023/05/30 04:48:45;;;;;;;9.98;4.47;;;16.00;99.90;;;;;;2096514;28;20418;-76
2023/05/30 04:49:45;;;;;;;9.75;4.47;;;16.00;99.90;;;;;;2096195;28;20032;-76
2023/05/30 04:50:46;;;;;;;13.13;4.60;;;16.10;99.90;;;;;;2104057;28;20074;-76
2023/05/30 04:51:47;;;;;;;10.73;4.47;;;16.20;99.90;;;;;;2102115;28;20572;-75
2023/05/30 04:52:47;;;;;;;13.10;4.57;;;16.40;99.90;;;;;;2103961;28;20055;-75
2023/05/30 04:53:48;;;;;;;16.20;4.80;;;16.60;99.90;;;;;;2113108;28;20034;-76
2023/05/30 04:54:49;;;;;;;10.63;4.43;;;16.90;99.90;;;;;;2104231;28;20573;-75
2023/05/30 04:55:50;;;;;;;9.25;4.15;;;17.20;99.90;;;;;;2095730;28;20037;-76
2023/05/30 04:56:50;;;;;;;10.48;4.40;;;17.40;99.90;;;;;;2097226;28;20042;-75
2023/05/30 04:57:51;;;;;;;10.63;4.40;;;17.80;99.90;;;;;;2087411;28;20524;-76
2023/05/30 04:58:51;;;;;;;11.68;4.70;;;18.10;96.90;;;;;;2094780;28;20035;-76
2023/05/30 04:59:52;;;;;;;10.02;4.88;;;18.30;95.50;;;;;;2103811;28;20094;-75
2023/05/30 05:00:53;;;;;;;11.07;4.30;;;18.60;94.50;;;;;;2095340;28;20087;-76
2023/05/30 05:01:54;;;;;;;10.88;4.40;;;18.90;93.00;;;;;;2093277;28;20021;-76
2023/05/30 05:02:55;;;;;;;8.82;3.70;;;19.10;91.30;;;;;;2095612;28;20032;-76
2023/05/30 05:03:55;;;;;;;8.23;4.00;;;19.40;90.10;;;;;;2093548;28;20064;-76
2023/05/30 05:04:56;;;;;;;8.77;3.97;;;19.70;86.40;;;;;;2087247;28;20068;-76
2023/05/30 05:05:57;;;;;;;8.25;3.88;;;19.70;84.80;;;;;;2087306;28;20068;-75
2023/05/30 05:06:57;;;;;;;10.13;4.20;;;19.90;83.40;;;;;;2093284;28;20079;-75
2023/05/30 05:07:58;;;;;;;8.88;4.28;;;20.00;81.50;;;;;;2093340;28;20043;-77
2023/05/30 05:08:59;;;;;;;10.15;3.90;;;20.00;82.60;;;;;;2100851;28;20032;-75
2023/05/30 05:09:59;;;;;;;9.48;4.43;;;20.20;82.20;;;;;;2112925;28;20529;-75
2023/05/30 05:11:04;;;;;;;9.20;4.30;;;20.30;81.60;;;;;;2098473;28;20028;-75
2023/05/30 05:12:05;;;;;;;12.70;4.70;;;20.30;80.40;;;;;;2101168;28;20039;-77
2023/05/30 05:13:05;;;;;;;8.70;3.95;;;20.50;78.00;;;;;;2103745;28;20024;-76
2023/05/30 05:14:06;;;;;;;12.43;4.55;;;20.60;76.30;;;;;;2103831;28;20028;-75
2023/05/30 05:15:07;;;;;;;12.20;4.90;;;20.60;76.90;;;;;;2113313;28;20036;-74
2023/05/30 05:16:08;;;;;;;13.52;4.43;;;20.50;77.80;;;;;;2112969;28;20016;-77
2023/05/30 05:17:08;;;;;;;10.43;4.47;;;20.50;77.60;;;;;;2109708;28;20091;-76
2023/05/30 05:18:10;;;;;;;13.45;5.30;;;20.50;76.90;;;;;;2096117;28;20028;-76
2023/05/30 05:19:10;;;;;;;11.35;4.78;;;20.40;76.50;;;;;;2103822;28;20039;-76
2023/05/30 05:20:12;;;;;;;12.10;4.45;;;20.50;77.00;;;;;;2095350;28;20115;-77
2023/05/30 05:21:14;;;;;;;12.55;4.85;;;20.40;76.20;;;;;;2104036;28;20036;-76
2023/05/30 05:22:14;;;;;;;13.45;4.57;;;20.30;76.60;;;;;;2111037;28;20059;-76
2023/05/30 05:23:16;;;;;;;13.80;4.28;;;20.20;76.90;;;;;;2103799;28;20031;-77
2023/05/30 05:24:16;;;;;;;10.85;4.57;;;20.40;76.90;;;;;;2103915;28;20093;-77
2023/05/30 05:25:17;;;;;;;12.32;4.40;;;20.50;75.50;;;;;;2103837;28;20028;-75
2023/05/30 05:26:17;;;;;;;12.70;4.95;;;20.50;76.30;;;;;;2101888;28;20024;-76